Time;durP1;ratioP1;P1;durP2;ratioP2;P2;SDS_P1;SDS_P2;PMS_P1;PMS_P2;Temp;Humidity;BMP_temperature;BMP_pressure;BME280_temperature;BME280_humidity;BME280_pressure;Samples;Min_cycle;Max_cycle;Signal;HPM_P1;HPM_P2
2024/03/01 00:00:20;;;;;;;39.20;17.15;;;;;;;3.85;100.00;97869.00;5086851;28;20032;-59
2024/03/01 00:02:45;;;;;;;42.67;16.15;;;;;;;3.91;100.00;97858.41;5089676;28;20039;-59
2024/03/01 00:05:10;;;;;;;45.90;16.83;;;;;;;3.78;100.00;97863.56;5089798;28;20020;-59
2024/03/01 00:07:36;;;;;;;45.05;17.45;;;;;;;3.70;100.00;97867.16;5092422;28;20024;-59
2024/03/01 00:10:01;;;;;;;42.22;16.58;;;;;;;3.73;100.00;97866.78;5097621;28;20038;-60
2024/03/01 00:12:27;;;;;;;42.45;17.15;;;;;;;3.64;100.00;97859.00;5092920;28;20067;-59
2024/03/01 00:14:52;;;;;;;40.90;16.65;;;;;;;3.57;100.00;97858.94;5098254;28;20020;-59
2024/03/01 00:17:18;;;;;;;41.42;16.10;;;;;;;3.47;100.00;97853.00;5091756;28;20030;-59
2024/03/01 00:19:43;;;;;;;39.60;16.20;;;;;;;3.38;100.00;97848.72;5089655;28;20107;-59
2024/03/01 00:22:08;;;;;;;38.25;15.73;;;;;;;3.29;100.00;97848.81;5093202;28;20090;-60
2024/03/01 00:24:33;;;;;;;43.05;17.27;;;;;;;3.28;100.00;97852.50;5095035;28;20073;-60
2024/03/01 00:26:59;;;;;;;41.22;16.77;;;;;;;3.27;100.00;97850.84;5099554;28;20102;-60
2024/03/01 00:29:24;;;;;;;47.33;17.75;;;;;;;3.31;100.00;97850.47;5085698;28;20028;-60
2024/03/01 00:31:50;;;;;;;46.40;16.50;;;;;;;3.24;100.00;97848.50;5092734;28;20070;-60
2024/03/01 00:34:15;;;;;;;45.08;17.17;;;;;;;3.24;100.00;97859.19;5087954;28;20429;-60
2024/03/01 00:36:40;;;;;;;39.00;16.20;;;;;;;3.21;100.00;97867.59;5095434;28;20366;-60
2024/03/01 00:39:07;;;;;;;45.60;17.05;;;;;;;3.14;100.00;97869.31;5068182;28;20023;-60
2024/03/01 00:41:32;;;;;;;49.55;18.27;;;;;;;3.05;100.00;97865.03;5092839;28;20028;-60
2024/03/01 00:43:58;;;;;;;50.50;18.55;;;;;;;3.06;100.00;97864.03;5095130;28;20077;-59
2024/03/01 00:46:24;;;;;;;47.83;17.83;;;;;;;3.05;100.00;97862.38;5093843;28;20027;-59
2024/03/01 00:48:53;;;;;;;44.13;16.92;;;;;;;3.08;100.00;97854.81;5094847;28;20020;-59
2024/03/01 00:51:19;;;;;;;43.65;17.05;;;;;;;3.15;100.00;97851.44;5092663;28;20455;-59
2024/03/01 00:53:45;;;;;;;43.70;16.98;;;;;;;3.24;100.00;97872.56;5095710;28;20043;-59
2024/03/01 00:56:12;;;;;;;39.83;17.33;;;;;;;3.28;100.00;97873.88;5094967;28;20028;-59
2024/03/01 00:58:37;;;;;;;44.75;16.48;;;;;;;3.36;100.00;97874.84;5095011;28;20034;-59
2024/03/01 01:01:03;;;;;;;46.55;17.65;;;;;;;3.43;100.00;97851.69;5094191;28;20019;-60
2024/03/01 01:03:28;;;;;;;44.50;18.00;;;;;;;3.50;100.00;97850.78;5094477;28;20028;-59
2024/03/01 01:05:55;;;;;;;41.65;16.67;;;;;;;3.56;100.00;97846.53;5092333;28;21273;-59
2024/03/01 01:08:20;;;;;;;38.25;15.80;;;;;;;3.53;100.00;97844.25;5090693;28;20426;-59
2024/03/01 01:10:47;;;;;;;39.17;16.70;;;;;;;3.58;100.00;97847.19;5095564;28;20036;-59
2024/03/01 01:13:12;;;;;;;46.13;16.85;;;;;;;3.54;100.00;97845.91;5093601;28;20030;-60
2024/03/01 01:15:38;;;;;;;43.80;16.60;;;;;;;3.42;100.00;97834.00;5096406;28;20028;-59
2024/03/01 01:18:03;;;;;;;37.92;14.82;;;;;;;3.32;100.00;97830.75;5091347;28;20036;-59
2024/03/01 01:20:29;;;;;;;37.30;16.02;;;;;;;3.13;100.00;97824.91;5095861;28;20032;-59
2024/03/01 01:22:54;;;;;;;45.50;16.98;;;;;;;3.14;100.00;97847.94;5092764;28;20028;-59
2024/03/01 01:25:19;;;;;;;48.72;18.45;;;;;;;3.20;100.00;97844.56;5077895;28;20036;-60
2024/03/01 01:27:45;;;;;;;43.78;17.40;;;;;;;3.16;100.00;97847.75;5094201;28;20032;-59
2024/03/01 01:30:11;;;;;;;48.25;17.55;;;;;;;3.23;100.00;97849.53;5097355;28;20032;-59
2024/03/01 01:32:36;;;;;;;53.25;18.58;;;;;;;3.22;100.00;97857.72;5095104;28;20091;-60
2024/03/01 01:35:02;;;;;;;45.25;17.92;;;;;;;3.33;100.00;97859.13;5093442;28;20020;-59
2024/03/01 01:37:27;;;;;;;44.78;18.35;;;;;;;3.26;100.00;97851.84;5093572;28;20382;-60
2024/03/01 01:39:53;;;;;;;43.95;17.52;;;;;;;3.35;100.00;97859.78;5090275;28;20086;-60
2024/03/01 01:42:18;;;;;;;38.15;16.50;;;;;;;3.42;100.00;97853.53;5095511;28;20028;-60
2024/03/01 01:44:43;;;;;;;56.33;19.10;;;;;;;3.49;100.00;97854.47;5092569;28;20032;-60
2024/03/01 01:47:09;;;;;;;49.33;19.27;;;;;;;3.49;100.00;97842.97;5092621;28;20479;-60
2024/03/01 01:49:35;;;;;;;51.72;17.95;;;;;;;3.63;100.00;97844.00;5076052;28;20024;-60
2024/03/01 01:52:01;;;;;;;43.25;17.75;;;;;;;3.65;100.00;97841.97;5097236;28;20107;-60
2024/03/01 01:54:26;;;;;;;47.15;18.85;;;;;;;3.69;100.00;97845.91;5089892;28;20027;-59
2024/03/01 01:56:52;;;;;;;46.15;19.05;;;;;;;3.65;100.00;97837.44;5087556;28;20031;-60
2024/03/01 01:59:18;;;;;;;41.65;16.85;;;;;;;3.60;100.00;97837.16;5072020;28;20051;-60
2024/03/01 02:01:44;;;;;;;44.17;17.73;;;;;;;3.56;100.00;97838.53;5095968;28;20023;-60
2024/03/01 02:04:09;;;;;;;40.28;16.52;;;;;;;3.49;100.00;97819.72;5094982;28;20103;-59
2024/03/01 02:06:35;;;;;;;44.42;17.38;;;;;;;3.65;100.00;97836.63;5087982;28;20106;-59
2024/03/01 02:09:01;;;;;;;46.88;16.80;;;;;;;3.70;100.00;97835.06;5097248;28;20023;-60
2024/03/01 02:11:27;;;;;;;43.25;18.67;;;;;;;3.76;100.00;97835.31;5091809;28;20028;-59
2024/03/01 02:13:56;;;;;;;45.10;17.33;;;;;;;3.87;100.00;97824.97;5093712;28;20031;-59
2024/03/01 02:16:22;;;;;;;43.92;18.58;;;;;;;3.90;100.00;97815.75;5092221;28;20036;-60
2024/03/01 02:18:48;;;;;;;43.97;17.70;;;;;;;3.91;100.00;97820.94;5096481;28;20042;-59
2024/03/01 02:21:14;;;;;;;43.78;18.08;;;;;;;3.99;100.00;97822.69;5092380;28;20074;-60
2024/03/01 02:23:40;;;;;;;48.15;18.02;;;;;;;3.95;100.00;97805.31;5095545;28;20096;-59
2024/03/01 02:26:06;;;;;;;49.65;17.90;;;;;;;4.06;100.00;97812.91;5097584;28;20024;-60
2024/03/01 02:28:32;;;;;;;49.13;16.90;;;;;;;4.10;100.00;97805.31;5073180;28;20031;-60
2024/03/01 02:30:57;;;;;;;41.80;16.98;;;;;;;4.10;100.00;97797.28;5091583;28;20036;-61
2024/03/01 02:33:23;;;;;;;45.08;16.38;;;;;;;4.10;100.00;97792.75;5097892;28;20024;-60
2024/03/01 02:35:49;;;;;;;47.08;18.55;;;;;;;4.07;100.00;97781.63;5070540;28;20415;-60
2024/03/01 02:38:15;;;;;;;38.88;16.90;;;;;;;4.04;100.00;97785.50;5091544;28;20111;-60
2024/03/01 02:40:41;;;;;;;44.75;17.42;;;;;;;4.02;100.00;97789.38;5092806;28;20028;-60
2024/03/01 02:43:06;;;;;;;42.63;15.45;;;;;;;3.88;100.00;97788.38;5094036;28;20129;-60
2024/03/01 02:45:36;;;;;;;41.85;15.13;;;;;;;3.39;100.00;97741.63;5091000;28;20035;-60
2024/03/01 02:48:03;;;;;;;40.40;14.55;;;;;;;3.52;100.00;97773.06;5094971;28;20539;-60
2024/03/01 02:50:28;;;;;;;40.50;16.02;;;;;;;3.41;100.00;97776.19;5093880;28;20487;-60
2024/03/01 02:52:53;;;;;;;46.08;15.90;;;;;;;3.38;100.00;97787.22;5093775;28;20024;-60
2024/03/01 02:55:22;;;;;;;38.17;16.08;;;;;;;3.37;100.00;97793.59;5096834;28;20015;-60
2024/03/01 02:57:48;;;;;;;42.92;16.38;;;;;;;3.40;100.00;97804.75;5088185;28;20491;-60
2024/03/01 03:00:14;;;;;;;41.20;16.80;;;;;;;3.46;100.00;97801.38;5092199;28;20483;-60
2024/03/01 03:02:40;;;;;;;47.50;16.25;;;;;;;3.49;100.00;97801.00;5093620;28;20019;-61
2024/03/01 03:05:05;;;;;;;43.33;15.73;;;;;;;3.32;100.00;97769.25;5093991;28;20471;-60
2024/03/01 03:07:31;;;;;;;44.78;17.08;;;;;;;3.51;100.00;97795.44;5090639;28;20027;-60
2024/03/01 03:09:56;;;;;;;43.58;16.05;;;;;;;3.57;100.00;97799.25;5090975;28;20055;-60
2024/03/01 03:12:22;;;;;;;46.22;17.42;;;;;;;3.59;100.00;97800.75;5092888;28;20403;-60
2024/03/01 03:14:48;;;;;;;44.85;18.25;;;;;;;3.65;100.00;97799.16;5087653;28;20051;-61
2024/03/01 03:17:13;;;;;;;42.67;17.35;;;;;;;3.72;100.00;97792.03;5088595;28;20107;-60
2024/03/01 03:19:39;;;;;;;47.20;18.45;;;;;;;3.75;100.00;97805.06;5092400;28;20085;-60
2024/03/01 03:22:08;;;;;;;52.80;18.38;;;;;;;3.74;100.00;97806.91;5092983;28;20039;-61
2024/03/01 03:24:34;;;;;;;47.88;17.42;;;;;;;3.71;100.00;97809.94;5094264;28;20067;-60
2024/03/01 03:27:00;;;;;;;44.58;17.02;;;;;;;3.69;100.00;97803.97;5088755;28;20724;-59
2024/03/01 03:29:25;;;;;;;38.33;15.85;;;;;;;3.69;100.00;97790.59;5091888;28;20138;-60
2024/03/01 03:31:51;;;;;;;43.08;17.15;;;;;;;3.75;100.00;97789.03;5091480;28;20467;-59
2024/03/01 03:34:17;;;;;;;39.22;15.75;;;;;;;3.80;100.00;97781.28;5073126;28;20031;-60
2024/03/01 03:36:42;;;;;;;41.88;16.50;;;;;;;3.81;100.00;97790.13;5094955;28;20040;-60
2024/03/01 03:39:09;;;;;;;48.00;16.42;;;;;;;3.79;100.00;97805.53;5091194;28;20051;-60
2024/03/01 03:41:34;;;;;;;46.85;17.98;;;;;;;3.74;100.00;97796.19;5092389;28;20027;-60
2024/03/01 03:44:00;;;;;;;40.50;14.88;;;;;;;3.89;100.00;97800.72;5088351;28;20036;-60
2024/03/01 03:46:26;;;;;;;39.97;16.13;;;;;;;3.91;100.00;97788.00;5095556;28;20030;-60
2024/03/01 03:48:52;;;;;;;43.70;16.08;;;;;;;3.98;100.00;97793.41;5093300;28;20039;-60
2024/03/01 03:51:26;;;;;;;44.20;15.30;;;;;;;3.99;100.00;97800.44;5093380;28;20024;-60
2024/03/01 03:53:52;;;;;;;41.70;15.10;;;;;;;4.06;100.00;97804.88;5093384;28;20482;-60
2024/03/01 03:56:17;;;;;;;56.58;17.17;;;;;;;4.12;100.00;97800.63;5085756;28;20089;-60
2024/03/01 03:58:43;;;;;;;39.40;16.02;;;;;;;4.17;100.00;97803.56;5087294;28;20514;-59
2024/03/01 04:01:08;;;;;;;39.13;17.23;;;;;;;4.23;100.00;97801.97;5090236;28;20027;-60
2024/03/01 04:03:34;;;;;;;40.15;16.13;;;;;;;4.29;100.00;97806.56;5084971;28;20027;-60
2024/03/01 04:05:59;;;;;;;39.75;16.23;;;;;;;4.23;100.00;97804.66;5088910;28;20051;-61
2024/03/01 04:08:25;;;;;;;38.30;15.23;;;;;;;4.15;100.00;97811.78;5068112;28;20386;-61
2024/03/01 04:10:50;;;;;;;37.88;15.63;;;;;;;4.12;100.00;97817.50;5094152;28;20027;-61
2024/03/01 04:13:16;;;;;;;44.75;15.70;;;;;;;4.11;100.00;97815.84;5091728;28;20032;-60
2024/03/01 04:15:43;;;;;;;36.42;14.57;;;;;;;4.14;100.00;97828.03;5090000;28;20070;-60
2024/03/01 04:18:10;;;;;;;35.30;15.18;;;;;;;4.11;100.00;97818.53;5085673;28;20942;-60
2024/03/01 04:20:35;;;;;;;40.22;15.65;;;;;;;4.10;100.00;97840.94;5092455;28;20383;-60
2024/03/01 04:23:04;;;;;;;41.60;16.92;;;;;;;4.00;100.00;97840.41;5090300;28;20028;-60
2024/03/01 04:25:29;;;;;;;39.55;16.95;;;;;;;3.91;100.00;97846.88;5089387;28;20029;-60
2024/03/01 04:27:55;;;;;;;38.20;16.95;;;;;;;3.84;100.00;97856.63;5088968;28;20079;-59
2024/03/01 04:30:20;;;;;;;44.28;17.42;;;;;;;3.80;100.00;97853.50;5089920;28;20032;-60
2024/03/01 04:32:45;;;;;;;48.15;19.35;;;;;;;3.81;100.00;97862.38;5095184;28;20016;-60
2024/03/01 04:35:12;;;;;;;50.05;18.52;;;;;;;3.88;100.00;97868.66;5071551;28;20024;-60
2024/03/01 04:37:38;;;;;;;47.53;17.17;;;;;;;3.77;100.00;97874.44;5088804;28;20051;-60
2024/03/01 04:40:05;;;;;;;52.38;18.77;;;;;;;3.70;100.00;97872.50;5092310;28;20472;-60
2024/03/01 04:42:30;;;;;;;48.22;18.27;;;;;;;3.59;100.00;97853.38;5090896;28;20081;-60
2024/03/01 04:44:56;;;;;;;44.67;17.35;;;;;;;3.60;100.00;97866.56;5091478;28;20420;-60
2024/03/01 04:47:22;;;;;;;55.15;19.48;;;;;;;3.64;100.00;97872.38;5084665;28;20110;-60
2024/03/01 04:49:48;;;;;;;51.72;18.17;;;;;;;3.68;100.00;97863.81;5091633;28;20028;-59
2024/03/01 04:52:13;;;;;;;47.90;18.48;;;;;;;3.77;100.00;97872.56;5091700;28;20383;-59
2024/03/01 04:54:39;;;;;;;44.80;18.48;;;;;;;3.83;100.00;97876.41;5089742;28;20036;-59
2024/03/01 04:57:08;;;;;;;50.10;18.02;;;;;;;3.87;100.00;97873.16;5089908;28;20032;-59
2024/03/01 04:59:38;;;;;;;43.70;17.75;;;;;;;3.86;100.00;97863.47;5083102;28;20028;-58
2024/03/01 05:02:05;;;;;;;48.50;19.33;;;;;;;3.93;100.00;97860.91;5086772;28;20030;-60
2024/03/01 05:04:30;;;;;;;49.33;19.45;;;;;;;3.84;100.00;97859.31;5088483;28;20561;-61
2024/03/01 05:06:56;;;;;;;49.47;17.90;;;;;;;4.08;100.00;97884.97;5086786;28;20089;-61
2024/03/01 05:09:21;;;;;;;50.60;18.20;;;;;;;4.05;100.00;97872.78;5088731;28;20036;-60
2024/03/01 05:11:47;;;;;;;47.47;18.63;;;;;;;4.09;100.00;97873.28;5080008;28;20044;-60
2024/03/01 05:14:13;;;;;;;46.80;18.88;;;;;;;4.03;100.00;97888.19;5072087;28;20048;-60
2024/03/01 05:16:38;;;;;;;46.45;18.20;;;;;;;3.97;100.00;97886.25;5089141;28;20060;-62
2024/03/01 05:19:03;;;;;;;52.45;20.08;;;;;;;3.92;100.00;97885.97;5076994;22;20053;-81
2024/03/01 05:21:29;;;;;;;42.70;18.40;;;;;;;3.87;100.00;97878.50;5009785;28;20425;-81
2024/03/01 05:23:55;;;;;;;50.28;18.50;;;;;;;3.88;100.00;97880.19;5033849;28;20324;-79
2024/03/01 05:26:20;;;;;;;44.92;17.20;;;;;;;3.83;100.00;97881.75;5031173;28;20053;-78
2024/03/01 05:28:46;;;;;;;41.67;16.55;;;;;;;3.93;100.00;97885.81;5044753;23;20065;-54
2024/03/01 05:31:11;;;;;;;47.47;17.52;;;;;;;3.83;100.00;97871.03;5052994;28;20063;-54
2024/03/01 05:33:37;;;;;;;46.60;18.60;;;;;;;3.91;100.00;97885.16;5060026;28;20021;-54
2024/03/01 05:36:05;;;;;;;47.22;17.77;;;;;;;3.85;100.00;97882.38;5057967;28;20045;-53
2024/03/01 05:38:31;;;;;;;52.22;19.45;;;;;;;3.88;100.00;97890.88;5058535;28;20083;-52
2024/03/01 05:40:58;;;;;;;41.67;16.30;;;;;;;3.88;100.00;97893.56;5053073;28;20073;-53
2024/03/01 05:43:23;;;;;;;39.10;16.67;;;;;;;3.94;100.00;97902.69;5051824;28;20120;-51
2024/03/01 05:45:49;;;;;;;45.33;18.10;;;;;;;3.88;100.00;97903.44;5059784;28;20482;-52
2024/03/01 05:48:16;;;;;;;49.83;17.92;;;;;;;3.84;100.00;97902.94;5054204;28;20024;-53
2024/03/01 05:50:41;;;;;;;47.60;18.33;;;;;;;3.89;100.00;97903.22;5056421;28;20025;-53
2024/03/01 05:53:14;;;;;;;45.20;18.25;;;;;;;3.95;100.00;97896.31;5066768;28;20426;-52
2024/03/01 05:55:40;;;;;;;46.97;17.38;;;;;;;3.89;100.00;97894.38;5057695;28;20416;-53
2024/03/01 05:58:06;;;;;;;48.33;17.23;;;;;;;3.85;100.00;97893.94;5054249;28;20078;-52
2024/03/01 06:00:31;;;;;;;46.97;18.27;;;;;;;3.99;100.00;97902.16;5052284;28;20440;-53
2024/03/01 06:02:57;;;;;;;48.72;18.02;;;;;;;3.99;100.00;97913.69;5059693;28;20028;-52
2024/03/01 06:05:23;;;;;;;40.25;16.95;;;;;;;3.93;100.00;97909.06;5051076;28;20389;-53
2024/03/01 06:07:48;;;;;;;41.83;16.73;;;;;;;3.94;100.00;97905.38;5055155;28;20115;-55
2024/03/01 06:10:16;;;;;;;48.70;18.98;;;;;;;4.26;100.00;97908.69;5058532;28;20079;-52
2024/03/01 06:12:42;;;;;;;54.42;20.08;;;;;;;4.43;100.00;97914.69;5059636;28;20498;-52
2024/03/01 06:15:07;;;;;;;40.88;15.65;;;;;;;4.42;100.00;97910.34;5049472;28;20059;-53
2024/03/01 06:17:33;;;;;;;38.75;15.80;;;;;;;4.34;100.00;97905.91;5058111;28;20021;-55
2024/03/01 06:19:59;;;;;;;46.38;16.65;;;;;;;4.22;100.00;97905.56;5052062;28;20060;-58
2024/03/01 06:22:24;;;;;;;37.47;15.95;;;;;;;4.25;100.00;97909.72;5056766;28;20029;-57
2024/03/01 06:24:50;;;;;;;49.28;18.77;;;;;;;4.28;100.00;97907.50;5054030;28;20029;-57
2024/03/01 06:27:16;;;;;;;45.80;16.70;;;;;;;4.38;100.00;97899.19;5062459;28;20025;-57
2024/03/01 06:29:42;;;;;;;50.13;18.70;;;;;;;4.48;100.00;97914.94;5052921;28;20047;-57
2024/03/01 06:32:10;;;;;;;49.17;19.05;;;;;;;4.55;100.00;97923.91;5052297;28;20037;-57
2024/03/01 06:34:36;;;;;;;41.67;17.00;;;;;;;4.67;100.00;97927.78;5061286;28;20020;-57
2024/03/01 06:37:03;;;;;;;38.35;15.77;;;;;;;4.72;100.00;97927.22;5053572;28;20025;-57
2024/03/01 06:39:29;;;;;;;45.67;18.50;;;;;;;4.86;100.00;97921.00;5054678;28;20032;-57
2024/03/01 06:41:54;;;;;;;47.15;17.42;;;;;;;4.92;100.00;97925.59;5052286;28;20036;-57
2024/03/01 06:44:24;;;;;;;45.72;17.77;;;;;;;4.97;100.00;97923.16;5060168;28;20021;-57
2024/03/01 06:46:50;;;;;;;41.78;17.10;;;;;;;5.01;100.00;97913.75;5050080;28;20029;-57
2024/03/01 06:49:16;;;;;;;53.20;20.35;;;;;;;5.05;100.00;97920.38;5054923;28;20365;-57
2024/03/01 06:51:41;;;;;;;51.95;20.48;;;;;;;5.12;100.00;97922.31;5058470;28;20033;-56
2024/03/01 06:54:06;;;;;;;48.03;19.42;;;;;;;5.25;100.00;97925.13;5052862;28;20036;-57
2024/03/01 06:56:32;;;;;;;46.90;21.08;;;;;;;5.43;100.00;97925.50;5053476;28;20040;-57
2024/03/01 06:58:57;;;;;;;45.47;20.35;;;;;;;5.54;100.00;97917.97;5052714;28;20036;-57
2024/03/01 07:01:23;;;;;;;41.10;18.67;;;;;;;5.64;100.00;97915.78;5061288;28;20024;-57
2024/03/01 07:03:48;;;;;;;43.97;19.88;;;;;;;5.70;100.00;97906.94;5055394;28;20446;-57
2024/03/01 07:06:13;;;;;;;41.75;19.05;;;;;;;5.78;100.00;97896.06;5055479;28;20456;-56
2024/03/01 07:08:39;;;;;;;42.40;18.13;;;;;;;5.78;100.00;97888.03;5056380;28;20110;-56
2024/03/01 07:11:05;;;;;;;42.97;18.20;;;;;;;5.89;100.00;97887.50;5049278;28;20056;-54
2024/03/01 07:13:30;;;;;;;39.83;16.58;;;;;;;5.98;100.00;97895.44;5044725;28;20803;-55
2024/03/01 07:15:56;;;;;;;40.13;17.38;;;;;;;6.17;100.00;97892.03;5053117;28;20029;-55
2024/03/01 07:18:21;;;;;;;56.05;23.38;;;;;;;6.20;100.00;97897.00;5047186;28;20037;-56
2024/03/01 07:20:46;;;;;;;65.45;26.02;;;;;;;6.20;100.00;97896.19;5053902;28;20512;-56
2024/03/01 07:23:12;;;;;;;52.22;22.42;;;;;;;6.33;100.00;97891.69;5053152;28;20025;-56
2024/03/01 07:25:37;;;;;;;45.38;19.92;;;;;;;6.46;100.00;97906.25;5050736;28;20471;-55
2024/03/01 07:28:03;;;;;;;43.58;17.73;;;;;;;6.56;100.00;97887.91;5054494;28;20020;-56
2024/03/01 07:30:29;;;;;;;41.70;16.10;;;;;;;6.60;100.00;97891.81;5053560;28;20032;-56
2024/03/01 07:32:57;;;;;;;45.00;17.90;;;;;;;6.77;100.00;97898.50;5058525;28;20472;-56
2024/03/01 07:35:23;;;;;;;37.10;16.45;;;;;;;6.84;100.00;97897.69;5057856;28;20031;-56
2024/03/01 07:37:48;;;;;;;34.90;16.25;;;;;;;6.98;100.00;97894.84;5047949;28;20025;-56
2024/03/01 07:40:15;;;;;;;35.13;15.68;;;;;;;7.15;100.00;97897.16;5057992;28;20502;-55
2024/03/01 07:42:40;;;;;;;37.78;16.17;;;;;;;7.12;100.00;97890.34;5052709;28;20036;-56
2024/03/01 07:45:06;;;;;;;36.40;15.20;;;;;;;7.27;100.00;97878.59;5053145;28;20066;-55
2024/03/01 07:47:31;;;;;;;39.00;17.58;;;;;;;7.33;100.00;97883.94;5050613;28;20120;-55
2024/03/01 07:49:57;;;;;;;39.47;16.90;;;;;;;7.60;100.00;97876.75;5063733;28;20427;-56
2024/03/01 07:52:27;;;;;;;37.63;17.42;;;;;;;7.59;100.00;97879.63;5055094;28;20423;-55
2024/03/01 07:54:53;;;;;;;38.10;17.45;;;;;;;7.69;100.00;97875.47;5060325;28;20820;-55
2024/03/01 07:57:18;;;;;;;36.28;16.92;;;;;;;7.89;100.00;97867.41;5052957;28;20106;-55
2024/03/01 07:59:43;;;;;;;37.25;17.27;;;;;;;7.97;100.00;97871.75;5054148;28;20436;-55
2024/03/01 08:02:10;;;;;;;42.55;17.08;;;;;;;8.17;100.00;97876.25;5058897;28;20041;-55
2024/03/01 08:04:36;;;;;;;40.60;17.92;;;;;;;8.27;100.00;97865.88;5053747;28;20028;-53
2024/03/01 08:07:02;;;;;;;38.45;18.55;;;;;;;8.49;100.00;97863.78;5050973;28;20625;-53
2024/03/01 08:09:32;;;;;;;36.80;18.02;;;;;;;8.64;100.00;97855.41;5049344;28;20033;-53
2024/03/01 08:11:58;;;;;;;38.70;15.95;;;;;;;8.96;100.00;97857.13;5038924;28;20024;-53
2024/03/01 08:14:30;;;;;;;38.05;16.60;;;;;;;9.16;100.00;97848.06;5056977;28;20036;-51
2024/03/01 08:16:55;;;;;;;36.80;16.25;;;;;;;9.39;100.00;97859.09;5038165;28;20023;-54
2024/03/01 08:19:35;;;;;;;40.70;18.83;;;;;;;9.51;100.00;97858.38;5053548;28;20395;-53
2024/03/01 08:22:06;;;;;;;;;;;;;;;9.67;100.00;97868.66;5055007;28;20364;-53
2024/03/01 08:24:31;;;;;;;62.13;21.95;;;;;;;9.82;100.00;97869.16;5045661;28;19921;-53
2024/03/01 08:26:57;;;;;;;41.58;18.15;;;;;;;9.99;100.00;97866.72;5044962;28;20035;-60
2024/03/01 08:29:22;;;;;;;56.78;19.95;;;;;;;9.96;100.00;97863.63;5047239;28;20025;-60
2024/03/01 08:31:48;;;;;;;82.38;25.45;;;;;;;10.09;100.00;97866.22;5048336;28;20025;-60
2024/03/01 08:34:36;;;;;;;39.83;17.60;;;;;;;10.08;100.00;97867.25;5061209;28;20482;-61
2024/03/01 08:37:02;;;;;;;42.95;17.25;;;;;;;10.20;100.00;97870.88;5040007;28;20043;-60
2024/03/01 08:39:27;;;;;;;33.65;17.67;;;;;;;10.34;100.00;97876.16;5055311;28;20033;-60
2024/03/01 08:41:55;;;;;;;38.75;15.70;;;;;;;10.33;100.00;97863.72;5057401;28;20598;-62
2024/03/01 08:44:23;;;;;;;39.58;16.75;;;;;;;10.11;100.00;97866.78;5049357;28;20492;-61
2024/03/01 08:46:49;;;;;;;39.75;17.48;;;;;;;9.93;100.00;97875.72;5049058;28;20041;-61
2024/03/01 08:50:11;;;;;;;36.47;17.13;;;;;;;9.93;100.00;97870.31;5052045;28;20381;-60
2024/03/01 08:52:37;;;;;;;30.60;14.77;;;;;;;10.06;100.00;97874.75;4968816;28;20035;-61
2024/03/01 08:55:20;;;;;;;35.85;15.98;;;;;;;10.21;100.00;97875.22;4968636;28;20356;-61
2024/03/01 08:57:47;;;;;;;35.88;16.30;;;;;;;10.39;100.00;97873.63;5023938;28;20033;-61
2024/03/01 09:00:37;;;;;;;29.17;14.52;;;;;;;10.61;100.00;97882.94;5047902;28;20025;-62
2024/03/01 09:03:04;;;;;;;29.58;15.02;;;;;;;10.68;100.00;97878.25;5060478;28;20025;-61
2024/03/01 09:05:30;;;;;;;32.97;16.08;;;;;;;10.75;100.00;97884.41;5053593;28;20729;-61
2024/03/01 09:08:00;;;;;;;37.60;15.55;;;;;;;10.60;100.00;97878.56;5051528;28;20027;-61
2024/03/01 09:10:34;;;;;;;37.63;15.93;;;;;;;10.57;100.00;97881.72;5053365;28;20170;-61
2024/03/01 09:13:00;;;;;;;33.42;16.13;;;;;;;10.47;100.00;97887.66;5051384;28;20021;-60
2024/03/01 09:15:30;;;;;;;38.65;16.25;;;;;;;10.19;100.00;97890.84;5058490;28;20037;-60
2024/03/01 09:17:55;;;;;;;;;;;;;;;10.12;100.00;97889.25;5051357;28;20087;-54
2024/03/01 09:20:36;;;;;;;32.90;15.27;;;;;;;9.90;100.00;97891.53;5053633;28;20337;-54
2024/03/01 09:23:05;;;;;;;34.10;16.17;;;;;;;9.63;100.00;97891.75;5050677;28;20086;-54
2024/03/01 09:25:43;;;;;;;35.10;15.70;;;;;;;9.21;100.00;97888.72;5051583;28;20071;-54
2024/03/01 09:28:12;;;;;;;38.33;16.63;;;;;;;9.06;100.00;97897.09;5052578;28;20376;-53
2024/03/01 09:30:38;;;;;;;37.13;16.58;;;;;;;8.92;100.00;97895.53;5049864;28;20037;-53
2024/03/01 09:33:16;;;;;;;35.33;16.77;;;;;;;8.89;100.00;97888.69;5033988;28;20087;-59
2024/03/01 09:35:46;;;;;;;42.88;17.35;;;;;;;8.81;100.00;97893.50;5049267;28;20060;-61
2024/03/01 09:38:14;;;;;;;35.95;16.70;;;;;;;8.68;100.00;97887.13;5047503;28;20411;-62
2024/03/01 09:40:53;;;;;;;39.25;17.42;;;;;;;8.47;100.00;97904.41;5053964;28;20124;-62
2024/03/01 09:43:38;;;;;;;;;;;;;;;8.13;100.00;97911.72;5053930;28;20025;-62
2024/03/01 09:46:22;;;;;;;39.55;17.00;;;;;;;8.21;100.00;97926.81;5056014;28;19912;-61
2024/03/01 09:49:07;;;;;;;39.83;17.58;;;;;;;8.26;100.00;97920.81;5053906;28;20029;-61
2024/03/01 09:51:53;;;;;;;46.70;19.67;;;;;;;8.07;100.00;97925.19;5047406;28;20171;-61
2024/03/01 09:54:55;;;;;;;43.25;19.58;;;;;;;8.10;100.00;97930.16;5051406;28;20021;-62
2024/03/01 09:57:28;;;;;;;39.75;17.73;;;;;;;8.18;100.00;97931.81;5053762;28;20056;-62
2024/03/01 10:00:04;;;;;;;40.22;18.05;;;;;;;8.23;100.00;97932.03;5052756;28;20024;-61
2024/03/01 10:02:31;;;;;;;43.28;18.27;;;;;;;8.30;100.00;97930.13;5053491;28;20488;-61
2024/03/01 10:05:43;;;;;;;50.45;18.23;;;;;;;8.44;100.00;97942.56;5055479;28;20964;-61
2024/03/01 10:08:21;;;;;;;38.97;17.67;;;;;;;8.66;100.00;97928.81;5038464;28;20048;-61
2024/03/01 10:11:03;;;;;;;45.83;18.02;;;;;;;8.77;100.00;97928.16;5036864;28;20044;-62
2024/03/01 10:14:04;;;;;;;37.83;17.42;;;;;;;8.98;100.00;97930.53;5052882;28;20029;-62
2024/03/01 10:16:49;;;;;;;40.25;16.45;;;;;;;8.90;100.00;97930.78;5052054;28;20392;-62
2024/03/01 10:19:52;;;;;;;34.80;16.92;;;;;;;9.05;100.00;97927.00;5052700;28;20036;-61
2024/03/01 10:22:34;;;;;;;42.55;16.83;;;;;;;8.98;100.00;97908.97;5055277;28;20024;-61
2024/03/01 10:25:21;;;;;;;38.85;16.17;;;;;;;9.11;100.00;97909.94;5047119;28;20032;-61
2024/03/01 10:27:52;;;;;;;35.85;16.20;;;;;;;9.08;100.00;97923.88;5051721;28;20119;-61
2024/03/01 10:30:20;;;;;;;37.38;15.55;;;;;;;9.07;100.00;97927.63;5054145;28;20029;-61
2024/03/01 10:33:03;;;;;;;38.38;17.10;;;;;;;8.98;100.00;97927.84;5049402;28;20384;-61
2024/03/01 10:36:04;;;;;;;35.72;16.10;;;;;;;8.99;100.00;97928.69;5053539;28;20122;-61
2024/03/01 10:38:46;;;;;;;42.10;16.42;;;;;;;9.13;100.00;97938.38;5041290;28;20110;-61
2024/03/01 10:41:22;;;;;;;38.58;16.77;;;;;;;9.15;100.00;97938.16;5037222;28;20165;-61
2024/03/01 10:44:01;;;;;;;41.00;16.35;;;;;;;9.33;100.00;97929.34;5038976;28;20021;-61
2024/03/01 10:46:44;;;;;;;35.75;16.50;;;;;;;9.40;100.00;97927.41;5049631;28;20068;-62
2024/03/01 10:49:38;;;;;;;37.70;16.48;;;;;;;9.33;100.00;97938.28;5052289;28;20028;-62
2024/03/01 10:52:14;;;;;;;46.25;16.90;;;;;;;9.48;100.00;97940.66;5050861;28;20188;-62
2024/03/01 10:54:46;;;;;;;36.40;16.40;;;;;;;9.54;100.00;97937.09;5046398;28;20067;-62
2024/03/01 10:57:14;;;;;;;35.85;15.50;;;;;;;9.46;100.00;97945.47;5048297;28;20048;-62
2024/03/01 10:59:43;;;;;;;35.20;15.32;;;;;;;9.42;100.00;97934.25;5045805;28;20033;-61
2024/03/01 11:02:39;;;;;;;36.22;16.85;;;;;;;9.36;100.00;97935.13;5051932;28;20124;-60
2024/03/01 11:05:16;;;;;;;35.83;15.90;;;;;;;9.43;100.00;97935.09;5046906;28;20029;-60
2024/03/01 11:08:19;;;;;;;34.75;16.00;;;;;;;9.46;100.00;97941.91;5026978;28;20052;-60
2024/03/01 11:11:04;;;;;;;38.28;16.63;;;;;;;9.40;100.00;97939.03;5052793;28;20029;-61
2024/03/01 11:13:32;;;;;;;39.53;16.73;;;;;;;9.46;100.00;97934.66;5053212;28;20032;-61
2024/03/01 11:15:59;;;;;;;39.30;16.33;;;;;;;9.47;100.00;97933.63;5046964;28;20020;-61
2024/03/01 11:18:30;;;;;;;31.77;15.30;;;;;;;9.86;100.00;97913.59;5084950;22;20052;-73
2024/03/01 11:21:02;;;;;;;37.58;16.83;;;;;;;10.07;100.00;97906.13;5067024;28;20021;-73
2024/03/01 11:23:33;;;;;;;34.80;15.43;;;;;;;10.17;100.00;97914.56;5059629;28;20440;-72